createdAt,value
2022-08-14T00:01:10.323Z,18.30
2022-08-14T00:03:40.707Z,18.21
2022-08-14T00:06:14.041Z,18.44
2022-08-14T00:08:52.378Z,18.53
2022-08-14T00:11:19.630Z,18.53
2022-08-14T00:13:52.661Z,18.47
2022-08-14T00:16:41.352Z,18.58
2022-08-14T00:19:21.303Z,18.70
2022-08-14T00:21:51.960Z,18.70
2022-08-14T00:24:28.093Z,18.61
2022-08-14T00:26:58.310Z,18.52
2022-08-14T00:29:30.732Z,18.40
2022-08-14T00:32:50.254Z,18.46
2022-08-14T00:34:54.269Z,18.47
2022-08-14T00:37:20.751Z,18.27
2022-08-14T00:39:47.457Z,18.24
2022-08-14T00:42:52.517Z,18.19
2022-08-14T00:45:09.084Z,18.11
2022-08-14T00:47:44.761Z,17.99
2022-08-14T00:50:18.200Z,17.98
2022-08-14T00:52:50.921Z,17.85
2022-08-14T00:55:19.830Z,17.82
2022-08-14T00:58:07.356Z,17.85
2022-08-14T01:00:42.983Z,17.79
2022-08-14T01:03:20.006Z,17.88
2022-08-14T01:05:51.591Z,17.87
2022-08-14T01:08:51.978Z,17.74
2022-08-14T01:11:08.452Z,17.75
2022-08-14T01:13:42.814Z,17.57
2022-08-14T01:16:14.780Z,17.63
2022-08-14T01:19:02.174Z,17.55
2022-08-14T01:21:38.872Z,17.59
2022-08-14T01:24:22.880Z,17.73
2022-08-14T01:26:57.889Z,17.81
2022-08-14T01:29:59.143Z,17.80
2022-08-14T01:32:15.686Z,17.80
2022-08-14T01:35:20.562Z,18.05
2022-08-14T01:37:56.375Z,17.98
2022-08-14T01:40:36.237Z,18.02
2022-08-14T01:43:18.523Z,18.01
2022-08-14T01:45:57.693Z,18.16
2022-08-14T01:48:33.085Z,17.96
2022-08-14T01:51:03.216Z,17.73
2022-08-14T01:53:33.417Z,17.81
2022-08-14T01:56:04.659Z,17.84
2022-08-14T01:58:57.270Z,17.63
2022-08-14T02:01:26.667Z,17.42
2022-08-14T02:03:56.935Z,17.43
2022-08-14T02:06:32.473Z,17.57
2022-08-14T02:09:02.341Z,17.69
2022-08-14T02:11:31.373Z,17.55
2022-08-14T02:14:07.486Z,17.65
2022-08-14T02:16:51.056Z,17.61
2022-08-14T02:19:20.616Z,17.38
2022-08-14T02:21:52.020Z,17.20
2022-08-14T02:24:39.753Z,17.25
2022-08-14T02:28:23.173Z,17.15
2022-08-14T02:30:01.126Z,17.21
2022-08-14T02:32:44.530Z,17.32
2022-08-14T02:35:18.485Z,17.34
2022-08-14T02:37:48.396Z,17.31
2022-08-14T02:40:16.403Z,17.29
2022-08-14T02:42:54.257Z,17.32
2022-08-14T02:45:25.077Z,17.10
2022-08-14T02:48:02.795Z,17.12
2022-08-14T02:50:29.348Z,17.13
2022-08-14T02:53:03.302Z,17.33
2022-08-14T02:55:30.908Z,17.18
2022-08-14T02:58:03.068Z,16.95
2022-08-14T03:00:31.933Z,16.97
2022-08-14T03:02:59.542Z,16.83
2022-08-14T03:05:30.346Z,16.86
2022-08-14T03:08:11.903Z,16.65
2022-08-14T03:10:49.283Z,16.66
2022-08-14T03:13:19.639Z,16.83
2022-08-14T03:15:55.276Z,16.94
2022-08-14T03:18:31.583Z,17.07
2022-08-14T03:21:07.584Z,16.92
2022-08-14T03:23:36.310Z,17.12
2022-08-14T03:26:07.065Z,17.00
2022-08-14T03:28:34.225Z,16.92
2022-08-14T03:31:03.830Z,16.92
2022-08-14T03:33:37.989Z,16.92
2022-08-14T03:37:38.964Z,16.88
2022-08-14T03:39:14.764Z,16.94
2022-08-14T03:41:46.314Z,16.96
2022-08-14T03:45:18.578Z,17.02
2022-08-14T03:46:59.668Z,16.95
2022-08-14T03:49:30.014Z,16.71
2022-08-14T03:51:58.370Z,16.73
2022-08-14T03:54:28.167Z,16.85
2022-08-14T03:56:54.910Z,16.84
2022-08-14T03:59:21.683Z,16.86
2022-08-14T04:01:58.107Z,16.97
2022-08-14T04:04:28.186Z,16.89
2022-08-14T04:06:54.876Z,16.99
2022-08-14T04:09:26.723Z,16.87
2022-08-14T04:11:53.840Z,16.78
2022-08-14T04:14:20.472Z,16.76
2022-08-14T04:16:47.991Z,16.81
2022-08-14T04:19:19.849Z,16.58
2022-08-14T04:22:02.910Z,16.53
2022-08-14T04:24:38.037Z,16.77
2022-08-14T04:27:09.597Z,16.93
2022-08-14T04:29:38.565Z,17.05
2022-08-14T04:33:01.027Z,17.12
2022-08-14T04:34:56.339Z,17.08
2022-08-14T04:37:42.943Z,16.98
2022-08-14T04:40:28.742Z,16.96
2022-08-14T04:43:17.331Z,17.08
2022-08-14T04:45:45.194Z,17.10
2022-08-14T04:48:36.639Z,17.19
2022-08-14T04:51:05.861Z,17.18
2022-08-14T04:53:35.453Z,16.95
2022-08-14T04:56:10.406Z,17.02
2022-08-14T04:58:39.075Z,17.00
2022-08-14T05:01:12.819Z,17.10
2022-08-14T05:03:44.476Z,17.36
2022-08-14T05:06:37.199Z,17.96
2022-08-14T05:09:00.001Z,18.94
2022-08-14T05:11:27.295Z,19.53
2022-08-14T05:14:16.649Z,20.18
2022-08-14T05:16:42.525Z,20.17
2022-08-14T05:19:18.345Z,20.49
2022-08-14T05:22:01.287Z,20.88
2022-08-14T05:24:42.999Z,21.21
2022-08-14T05:27:10.323Z,21.25
2022-08-14T05:29:36.719Z,21.44
2022-08-14T05:32:09.049Z,21.51
2022-08-14T05:34:35.485Z,21.61
2022-08-14T05:37:02.936Z,21.80
2022-08-14T05:39:31.082Z,21.93
2022-08-14T05:41:58.073Z,21.99
2022-08-14T05:44:29.148Z,22.23
2022-08-14T05:46:56.956Z,22.15
2022-08-14T05:49:32.885Z,22.15
2022-08-14T05:52:01.674Z,22.48
2022-08-14T05:54:35.263Z,22.49
2022-08-14T05:57:04.290Z,22.77
2022-08-14T05:59:36.664Z,22.69
2022-08-14T06:02:10.529Z,22.66
2022-08-14T06:04:38.774Z,22.96
2022-08-14T06:07:05.752Z,22.88
2022-08-14T06:09:35.802Z,22.84
2022-08-14T06:12:10.786Z,22.86
2022-08-14T06:14:39.186Z,23.09
2022-08-14T06:17:05.957Z,23.40
2022-08-14T06:19:32.386Z,23.00
2022-08-14T06:21:59.669Z,22.89
2022-08-14T06:24:27.212Z,22.57
2022-08-14T06:27:04.527Z,22.66
2022-08-14T06:29:34.753Z,22.84
2022-08-14T06:32:37.716Z,22.87
2022-08-14T06:35:11.335Z,23.01
2022-08-14T06:37:58.454Z,22.96
2022-08-14T06:40:28.274Z,22.77
2022-08-14T06:43:07.157Z,22.88
2022-08-14T06:45:36.210Z,22.96
2022-08-14T06:48:03.380Z,23.19
2022-08-14T06:50:33.564Z,23.24
2022-08-14T06:53:00.269Z,23.19
2022-08-14T06:55:28.196Z,23.43
2022-08-14T06:57:57.495Z,23.22
2022-08-14T07:00:26.896Z,23.49
2022-08-14T07:03:13.261Z,23.83
2022-08-14T07:05:55.067Z,24.11
2022-08-14T07:08:30.972Z,24.67
2022-08-14T07:11:00.776Z,24.54
2022-08-14T07:13:28.402Z,24.72
2022-08-14T07:15:56.581Z,24.91
2022-08-14T07:18:29.913Z,24.95
2022-08-14T07:20:58.342Z,24.78
2022-08-14T07:23:25.862Z,24.89
2022-08-14T07:25:54.796Z,24.96
2022-08-14T07:28:26.900Z,24.99
2022-08-14T07:31:04.420Z,25.13
2022-08-14T07:33:45.645Z,25.17
2022-08-14T07:36:27.699Z,25.40
2022-08-14T07:39:03.067Z,25.28
2022-08-14T07:41:39.089Z,25.40
2022-08-14T07:44:32.332Z,25.43
2022-08-14T07:46:57.860Z,25.59
2022-08-14T07:49:24.561Z,25.80
2022-08-14T07:51:51.141Z,25.87
2022-08-14T07:54:23.544Z,25.98
2022-08-14T07:57:12.110Z,25.99
2022-08-14T07:59:43.478Z,26.04
2022-08-14T08:02:19.011Z,25.95
2022-08-14T08:04:54.901Z,26.14
2022-08-14T08:07:24.882Z,25.88
2022-08-14T08:09:57.893Z,25.88
2022-08-14T08:12:30.169Z,26.15
2022-08-14T08:15:02.787Z,26.46
2022-08-14T08:17:34.974Z,26.52
2022-08-14T08:20:15.638Z,26.62
2022-08-14T08:22:48.478Z,26.34
2022-08-14T08:25:20.567Z,26.62
2022-08-14T08:28:08.860Z,26.81
2022-08-14T08:30:53.169Z,26.80
2022-08-14T08:33:21.881Z,26.27
2022-08-14T08:35:50.627Z,26.33
2022-08-14T08:39:14.442Z,26.55
2022-08-14T08:41:11.115Z,26.71
2022-08-14T08:43:39.223Z,26.97
2022-08-14T08:46:21.707Z,27.08
2022-08-14T08:51:34.502Z,27.23
2022-08-14T08:54:15.324Z,27.21
2022-08-14T08:56:52.008Z,27.38
2022-08-14T08:59:31.187Z,27.62
2022-08-14T09:02:05.304Z,27.51
2022-08-14T09:04:45.615Z,27.55
2022-08-14T09:07:20.137Z,27.84
2022-08-14T09:09:59.372Z,28.11
2022-08-14T09:12:29.882Z,28.01
2022-08-14T09:15:11.510Z,27.95
2022-08-14T09:17:41.263Z,28.09
2022-08-14T09:20:11.719Z,28.29
2022-08-14T09:22:42.567Z,28.05
2022-08-14T09:25:15.517Z,28.39
2022-08-14T09:27:42.123Z,28.27
2022-08-14T09:30:30.696Z,28.31
2022-08-14T09:33:15.583Z,28.83
2022-08-14T09:35:58.329Z,28.31
2022-08-14T09:38:46.466Z,28.91
2022-08-14T09:42:21.747Z,28.91
2022-08-14T09:44:42.785Z,28.99
2022-08-14T09:47:12.481Z,28.97
2022-08-14T09:49:42.774Z,28.70
2022-08-14T09:52:32.768Z,28.50
2022-08-14T09:54:56.663Z,29.02
2022-08-14T09:57:27.728Z,29.05
2022-08-14T09:59:55.792Z,29.19
2022-08-14T10:02:28.605Z,29.14
2022-08-14T10:05:10.245Z,29.63
2022-08-14T10:07:57.500Z,30.11
2022-08-14T10:10:35.129Z,29.76
2022-08-14T10:13:04.630Z,29.49
2022-08-14T10:15:33.208Z,29.58
2022-08-14T10:18:13.496Z,29.64
2022-08-14T10:20:57.440Z,30.22
2022-08-14T10:23:27.372Z,30.26
2022-08-14T10:26:06.600Z,30.52
2022-08-14T10:29:19.811Z,30.64
2022-08-14T10:31:43.179Z,31.00
2022-08-14T10:34:14.087Z,31.49
2022-08-14T10:36:47.536Z,31.46
2022-08-14T10:39:21.717Z,31.01
2022-08-14T10:41:49.353Z,31.14
2022-08-14T10:44:24.438Z,31.28
2022-08-14T10:47:39.094Z,31.48
2022-08-14T10:49:48.410Z,31.30
2022-08-14T10:52:26.639Z,30.88
2022-08-14T10:55:05.414Z,31.38
2022-08-14T10:57:33.246Z,31.30
2022-08-14T11:00:13.842Z,31.67
2022-08-14T11:03:02.085Z,31.27
2022-08-14T11:05:49.253Z,31.22
2022-08-14T11:08:32.667Z,30.84
2022-08-14T11:11:03.172Z,31.48
2022-08-14T11:13:31.359Z,31.90
2022-08-14T11:16:02.671Z,31.98
2022-08-14T11:18:35.899Z,31.96
2022-08-14T11:21:06.759Z,31.94
2022-08-14T11:23:38.607Z,31.31
2022-08-14T11:26:10.314Z,31.76
2022-08-14T11:28:46.216Z,31.67
2022-08-14T11:31:17.193Z,31.82
2022-08-14T11:33:43.700Z,32.17
2022-08-14T11:36:17.908Z,31.42
2022-08-14T11:38:46.183Z,31.46
2022-08-14T11:41:14.237Z,31.47
2022-08-14T11:43:58.069Z,31.06
2022-08-14T11:46:30.609Z,31.32
2022-08-14T11:49:05.181Z,31.21
2022-08-14T11:51:50.802Z,31.46
2022-08-14T11:54:19.645Z,31.52
2022-08-14T11:56:49.872Z,31.14
2022-08-14T11:59:19.701Z,30.92
2022-08-14T12:01:52.818Z,31.27
2022-08-14T12:04:31.610Z,31.70
2022-08-14T12:07:01.292Z,31.80
2022-08-14T12:09:30.235Z,32.25
2022-08-14T12:11:57.169Z,32.12
2022-08-14T12:14:34.548Z,32.50
2022-08-14T12:17:11.798Z,32.20
2022-08-14T12:19:51.211Z,32.15
2022-08-14T12:22:42.287Z,31.94
2022-08-14T12:25:15.281Z,32.68
2022-08-14T12:27:53.199Z,32.77
2022-08-14T12:30:38.020Z,32.55
2022-08-14T12:33:25.668Z,32.01
2022-08-14T12:35:56.460Z,31.94
2022-08-14T12:38:37.682Z,32.01
2022-08-14T12:41:10.548Z,31.64
2022-08-14T12:43:51.704Z,32.00
2022-08-14T12:46:27.263Z,31.91
2022-08-14T12:48:56.056Z,32.23
2022-08-14T12:51:27.102Z,32.37
2022-08-14T12:53:59.224Z,32.70
2022-08-14T12:56:33.772Z,32.60
2022-08-14T12:59:01.808Z,32.87
2022-08-14T13:01:59.070Z,32.66
2022-08-14T13:04:18.913Z,32.93
2022-08-14T13:06:50.595Z,32.90
2022-08-14T13:09:19.617Z,33.07
2022-08-14T13:11:58.834Z,32.25
2022-08-14T13:14:38.357Z,32.46
2022-08-14T13:17:04.967Z,32.65
2022-08-14T13:19:35.512Z,32.85
2022-08-14T13:22:09.599Z,32.86
2022-08-14T13:24:39.481Z,32.83
2022-08-14T13:27:09.749Z,33.06
2022-08-14T13:29:46.594Z,32.79
2022-08-14T13:32:14.395Z,33.08
2022-08-14T13:34:43.628Z,33.11
2022-08-14T13:37:14.265Z,33.03
2022-08-14T13:39:47.667Z,32.78
2022-08-14T13:42:27.731Z,32.90
2022-08-14T13:44:59.117Z,32.67
2022-08-14T13:47:29.765Z,32.78
2022-08-14T13:50:02.904Z,32.85
2022-08-14T13:52:52.287Z,32.85
2022-08-14T13:55:28.596Z,33.14
2022-08-14T13:58:03.209Z,32.92
2022-08-14T14:00:35.721Z,32.94
2022-08-14T14:03:24.254Z,32.87
2022-08-14T14:05:54.349Z,32.81
2022-08-14T14:08:43.515Z,32.99
2022-08-14T14:11:09.854Z,32.81
2022-08-14T14:13:37.667Z,32.81
2022-08-14T14:16:11.286Z,32.70
2022-08-14T14:18:43.810Z,32.60
2022-08-14T14:21:13.669Z,32.90
2022-08-14T14:23:43.830Z,33.10
2022-08-14T14:26:18.857Z,33.07
2022-08-14T14:28:56.503Z,33.12
2022-08-14T14:31:31.336Z,33.18
2022-08-14T14:34:07.781Z,33.10
2022-08-14T14:36:41.619Z,33.37
2022-08-14T14:39:10.436Z,33.24
2022-08-14T14:41:43.687Z,33.36
2022-08-14T14:44:13.668Z,33.46
2022-08-14T14:46:44.850Z,33.36
2022-08-14T14:49:14.373Z,33.22
2022-08-14T14:51:45.107Z,33.59
2022-08-14T14:54:17.722Z,33.29
2022-08-14T14:56:50.363Z,33.27
2022-08-14T14:59:19.541Z,33.49
2022-08-14T15:01:51.187Z,33.18
2022-08-14T15:04:20.889Z,33.22
2022-08-14T15:06:48.517Z,33.26
2022-08-14T15:09:18.168Z,33.15
2022-08-14T15:11:47.037Z,33.01
2022-08-14T15:14:55.028Z,32.91
2022-08-14T15:17:01.122Z,32.95
2022-08-14T15:19:27.572Z,32.96
2022-08-14T15:21:55.323Z,32.84
2022-08-14T15:24:24.272Z,32.72
2022-08-14T15:26:53.333Z,32.55
2022-08-14T15:29:19.739Z,32.62
2022-08-14T15:31:46.164Z,32.40
2022-08-14T15:34:44.430Z,32.58
2022-08-14T15:37:02.270Z,32.72
2022-08-14T15:39:33.833Z,32.93
2022-08-14T15:42:04.092Z,32.89
2022-08-14T15:44:44.808Z,32.55
2022-08-14T15:47:27.727Z,32.89
2022-08-14T15:49:59.096Z,33.02
2022-08-14T15:52:32.125Z,32.82
2022-08-14T15:55:03.443Z,32.82
2022-08-14T15:57:30.823Z,32.90
2022-08-14T16:00:37.845Z,32.85
2022-08-14T16:03:08.686Z,32.77
2022-08-14T16:05:38.507Z,32.86
2022-08-14T16:08:28.611Z,32.78
2022-08-14T16:10:55.792Z,32.67
2022-08-14T16:13:39.245Z,32.60
2022-08-14T16:16:47.218Z,32.92
2022-08-14T16:18:58.238Z,32.70
2022-08-14T16:21:31.608Z,32.79
2022-08-14T16:24:00.367Z,32.98
2022-08-14T16:26:30.056Z,32.65
2022-08-14T16:29:04.793Z,32.70
2022-08-14T16:31:36.247Z,32.62
2022-08-14T16:34:46.138Z,32.58
2022-08-14T16:36:54.547Z,32.39
2022-08-14T16:39:22.784Z,32.44
2022-08-14T16:41:57.981Z,32.62
2022-08-14T16:44:32.878Z,32.37
2022-08-14T16:47:02.648Z,32.01
2022-08-14T16:50:03.455Z,32.02
2022-08-14T16:52:25.158Z,32.29
2022-08-14T16:55:09.334Z,32.47
2022-08-14T16:57:50.044Z,32.33
2022-08-14T17:00:27.979Z,32.45
2022-08-14T17:03:11.760Z,32.72
2022-08-14T17:05:46.701Z,32.92
2022-08-14T17:08:33.474Z,32.56
2022-08-14T17:11:10.824Z,32.55
2022-08-14T17:13:59.590Z,32.35
2022-08-14T17:16:30.922Z,32.36
2022-08-14T17:19:01.759Z,32.32
2022-08-14T17:21:38.426Z,32.43
2022-08-14T17:24:57.174Z,32.26
2022-08-14T17:27:03.642Z,32.08
2022-08-14T17:29:33.809Z,31.99
2022-08-14T17:32:22.440Z,32.01
2022-08-14T17:34:55.428Z,31.91
2022-08-14T17:37:29.605Z,31.79
2022-08-14T17:40:15.457Z,31.62
2022-08-14T17:42:51.363Z,31.62
2022-08-14T17:45:26.851Z,31.65
2022-08-14T17:47:57.443Z,31.58
2022-08-14T17:51:03.091Z,31.49
2022-08-14T17:53:33.145Z,31.48
2022-08-14T17:56:03.994Z,31.47
2022-08-14T17:58:38.586Z,31.43
2022-08-14T18:01:13.130Z,31.34
2022-08-14T18:03:44.887Z,31.09
2022-08-14T18:06:39.499Z,30.93
2022-08-14T18:09:25.115Z,30.69
2022-08-14T18:11:55.168Z,30.53
2022-08-14T18:14:32.308Z,30.18
2022-08-14T18:17:01.454Z,30.14
2022-08-14T18:19:30.509Z,30.02
2022-08-14T18:21:59.531Z,29.88
2022-08-14T18:24:29.676Z,29.83
2022-08-14T18:27:23.106Z,29.66
2022-08-14T18:29:54.952Z,29.49
2022-08-14T18:32:31.242Z,29.11
2022-08-14T18:35:00.588Z,29.16
2022-08-14T18:37:30.808Z,28.95
2022-08-14T18:40:16.238Z,28.65
2022-08-14T18:42:58.169Z,28.59
2022-08-14T18:45:41.399Z,28.59
2022-08-14T18:48:50.609Z,28.48
2022-08-14T18:51:45.724Z,28.40
2022-08-14T18:54:27.252Z,28.15
2022-08-14T18:57:01.511Z,28.17
2022-08-14T18:59:35.881Z,27.90
2022-08-14T19:02:30.707Z,27.61
2022-08-14T19:05:02.533Z,27.53
2022-08-14T19:07:34.125Z,27.39
2022-08-14T19:10:05.747Z,27.30
2022-08-14T19:12:50.623Z,27.13
2022-08-14T19:15:20.919Z,26.94
2022-08-14T19:18:14.381Z,26.79
2022-08-14T19:20:53.454Z,26.65
2022-08-14T19:23:23.851Z,26.26
2022-08-14T19:26:36.173Z,26.15
2022-08-14T19:29:38.389Z,25.65
2022-08-14T19:32:38.883Z,25.68
2022-08-14T19:35:18.041Z,25.47
2022-08-14T19:37:52.570Z,25.55
2022-08-14T19:40:36.081Z,25.55
2022-08-14T19:43:06.333Z,25.45
2022-08-14T19:45:33.854Z,25.54
2022-08-14T19:48:01.560Z,25.35
2022-08-14T19:50:38.957Z,25.16
2022-08-14T19:53:17.326Z,25.04
2022-08-14T19:55:54.513Z,25.03
2022-08-14T19:58:30.050Z,24.92
2022-08-14T20:00:59.046Z,24.67
2022-08-14T20:03:25.621Z,24.83
2022-08-14T20:06:12.847Z,24.94
2022-08-14T20:10:58.840Z,25.15
2022-08-14T20:11:43.382Z,25.15
2022-08-14T20:14:20.506Z,25.09
2022-08-14T20:16:55.686Z,25.04
2022-08-14T20:19:31.241Z,25.08
2022-08-14T20:22:35.337Z,25.00
2022-08-14T20:24:54.062Z,25.12
2022-08-14T20:27:21.082Z,25.14
2022-08-14T20:30:34.908Z,25.04
2022-08-14T20:33:07.866Z,25.17
2022-08-14T20:35:41.950Z,25.24
2022-08-14T20:38:29.663Z,25.12
2022-08-14T20:41:06.477Z,25.13
2022-08-14T20:43:55.229Z,24.80
2022-08-14T20:46:29.502Z,24.85
2022-08-14T20:49:10.739Z,24.74
2022-08-14T20:51:59.439Z,24.64
2022-08-14T20:54:34.250Z,24.38
2022-08-14T20:57:17.890Z,24.45
2022-08-14T20:59:50.310Z,24.55
2022-08-14T21:02:34.727Z,24.64
2022-08-14T21:05:16.931Z,24.65
2022-08-14T21:07:50.232Z,24.56
2022-08-14T21:10:33.836Z,24.69
2022-08-14T21:14:09.259Z,24.38
2022-08-14T21:15:57.206Z,24.58
2022-08-14T21:18:47.259Z,24.62
2022-08-14T21:21:18.667Z,24.41
2022-08-14T21:23:54.157Z,24.50
2022-08-14T21:26:50.443Z,23.70
2022-08-14T21:29:11.311Z,24.10
2022-08-14T21:31:38.723Z,24.04
2022-08-14T21:34:31.079Z,24.13
2022-08-14T21:36:54.316Z,24.20
2022-08-14T21:39:24.050Z,24.18
2022-08-14T21:41:58.849Z,24.12
2022-08-14T21:44:36.165Z,24.10
2022-08-14T21:47:11.891Z,24.10
2022-08-14T21:49:40.036Z,24.08
2022-08-14T21:52:50.979Z,24.09
2022-08-14T21:55:09.142Z,24.02
2022-08-14T21:58:03.817Z,24.09
2022-08-14T22:00:34.679Z,24.11
2022-08-14T22:03:04.724Z,23.97
2022-08-14T22:05:31.244Z,23.77
2022-08-14T22:07:58.362Z,23.85
2022-08-14T22:10:25.420Z,23.69
2022-08-14T22:13:00.880Z,23.84
2022-08-14T22:15:29.966Z,23.87
2022-08-14T22:17:58.049Z,23.81
2022-08-14T22:20:28.611Z,23.85
2022-08-14T22:22:56.748Z,23.80
2022-08-14T22:25:33.317Z,23.87
2022-08-14T22:28:02.928Z,23.67
2022-08-14T22:30:30.072Z,23.71
2022-08-14T22:32:58.447Z,23.67
2022-08-14T22:35:28.207Z,23.60
2022-08-14T22:38:32.615Z,23.69
2022-08-14T22:41:20.331Z,23.66
2022-08-14T22:43:35.179Z,23.78
2022-08-14T22:46:06.203Z,23.60
2022-08-14T22:48:43.041Z,23.80
2022-08-14T22:51:13.438Z,24.04
2022-08-14T22:53:40.186Z,23.99
2022-08-14T22:56:20.666Z,24.05
2022-08-14T22:58:49.956Z,24.15
2022-08-14T23:01:56.920Z,24.26
2022-08-14T23:04:35.120Z,24.54
2022-08-14T23:07:21.753Z,24.43
2022-08-14T23:09:56.902Z,24.60
2022-08-14T23:12:27.672Z,24.86
2022-08-14T23:14:55.627Z,25.26
2022-08-14T23:17:22.597Z,25.60
2022-08-14T23:19:49.027Z,25.56
2022-08-14T23:22:24.233Z,25.46
2022-08-14T23:24:53.054Z,25.39
2022-08-14T23:27:31.776Z,25.55
2022-08-14T23:30:34.578Z,25.67
2022-08-14T23:33:02.313Z,25.62
2022-08-14T23:35:32.953Z,25.75
2022-08-14T23:38:01.831Z,25.55
2022-08-14T23:40:30.285Z,25.45
2022-08-14T23:43:08.008Z,25.30
2022-08-14T23:45:42.725Z,25.15
2022-08-14T23:48:12.487Z,25.16
2022-08-14T23:50:40.124Z,25.12
2022-08-14T23:53:28.198Z,25.30
2022-08-14T23:56:15.905Z,25.02
2022-08-14T23:58:49.283Z,24.90
